sensor_id;sensor_type;location;lat;lon;timestamp;temperature;humidity
69393;SHT31;56582;44.624;20.378;2022-07-23T00:02:25;24.65;44.54
69393;SHT31;56582;44.624;20.378;2022-07-23T00:04:50;24.58;44.74
69393;SHT31;56582;44.624;20.378;2022-07-23T00:07:16;24.47;45.04
69393;SHT31;56582;44.624;20.378;2022-07-23T00:09:42;24.51;44.96
69393;SHT31;56582;44.624;20.378;2022-07-23T00:12:07;24.44;44.99
69393;SHT31;56582;44.624;20.378;2022-07-23T00:14:33;24.38;45.36
69393;SHT31;56582;44.624;20.378;2022-07-23T00:16:58;24.57;45.24
69393;SHT31;56582;44.624;20.378;2022-07-23T00:19:24;24.54;45.44
69393;SHT31;56582;44.624;20.378;2022-07-23T00:21:49;24.61;45.31
69393;SHT31;56582;44.624;20.378;2022-07-23T00:24:15;24.51;45.33
69393;SHT31;56582;44.624;20.378;2022-07-23T00:26:40;24.48;45.73
69393;SHT31;56582;44.624;20.378;2022-07-23T00:29:06;24.14;46.09
69393;SHT31;56582;44.624;20.378;2022-07-23T00:31:31;24.27;45.71
69393;SHT31;56582;44.624;20.378;2022-07-23T00:33:59;24.31;45.66
69393;SHT31;56582;44.624;20.378;2022-07-23T00:36:27;24.22;46.31
69393;SHT31;56582;44.624;20.378;2022-07-23T00:38:53;24.32;45.79
69393;SHT31;56582;44.624;20.378;2022-07-23T00:41:18;24.45;45.30
69393;SHT31;56582;44.624;20.378;2022-07-23T00:43:44;24.38;45.74
69393;SHT31;56582;44.624;20.378;2022-07-23T00:46:10;24.40;45.42
69393;SHT31;56582;44.624;20.378;2022-07-23T00:48:35;24.41;45.34
69393;SHT31;56582;44.624;20.378;2022-07-23T00:51:00;24.28;45.05
69393;SHT31;56582;44.624;20.378;2022-07-23T00:53:26;24.17;45.36
69393;SHT31;56582;44.624;20.378;2022-07-23T00:55:55;24.07;45.33
69393;SHT31;56582;44.624;20.378;2022-07-23T00:58:21;24.01;45.27
69393;SHT31;56582;44.624;20.378;2022-07-23T01:00:46;23.96;45.41
69393;SHT31;56582;44.624;20.378;2022-07-23T01:03:12;23.90;45.35
69393;SHT31;56582;44.624;20.378;2022-07-23T01:05:37;23.99;45.28
69393;SHT31;56582;44.624;20.378;2022-07-23T01:08:05;23.89;45.33
69393;SHT31;56582;44.624;20.378;2022-07-23T01:10:31;24.06;44.82
69393;SHT31;56582;44.624;20.378;2022-07-23T01:13:14;24.00;44.71
69393;SHT31;56582;44.624;20.378;2022-07-23T01:15:40;23.86;45.23
69393;SHT31;56582;44.624;20.378;2022-07-23T01:18:07;23.89;45.21
69393;SHT31;56582;44.624;20.378;2022-07-23T01:20:33;23.89;44.73
69393;SHT31;56582;44.624;20.378;2022-07-23T01:22:58;23.79;44.79
69393;SHT31;56582;44.624;20.378;2022-07-23T01:25:24;24.03;44.30
69393;SHT31;56582;44.624;20.378;2022-07-23T01:27:51;24.10;43.92
69393;SHT31;56582;44.624;20.378;2022-07-23T01:30:17;24.00;44.07
69393;SHT31;56582;44.624;20.378;2022-07-23T01:32:43;24.00;43.93
69393;SHT31;56582;44.624;20.378;2022-07-23T01:35:09;23.94;44.23
69393;SHT31;56582;44.624;20.378;2022-07-23T01:37:35;23.86;44.47
69393;SHT31;56582;44.624;20.378;2022-07-23T01:40:01;23.99;44.04
69393;SHT31;56582;44.624;20.378;2022-07-23T01:42:26;23.84;44.62
69393;SHT31;56582;44.624;20.378;2022-07-23T01:44:52;23.67;45.03
69393;SHT31;56582;44.624;20.378;2022-07-23T01:47:17;23.66;45.20
69393;SHT31;56582;44.624;20.378;2022-07-23T01:49:43;23.72;44.73
69393;SHT31;56582;44.624;20.378;2022-07-23T01:52:08;23.69;44.85
69393;SHT31;56582;44.624;20.378;2022-07-23T01:54:38;23.76;44.60
69393;SHT31;56582;44.624;20.378;2022-07-23T01:57:05;23.87;44.15
69393;SHT31;56582;44.624;20.378;2022-07-23T01:59:31;23.82;44.12
69393;SHT31;56582;44.624;20.378;2022-07-23T02:01:56;23.80;44.29
69393;SHT31;56582;44.624;20.378;2022-07-23T02:04:23;23.72;44.33
69393;SHT31;56582;44.624;20.378;2022-07-23T02:06:50;23.69;44.52
69393;SHT31;56582;44.624;20.378;2022-07-23T02:09:15;23.48;45.53
69393;SHT31;56582;44.624;20.378;2022-07-23T02:11:41;23.58;45.03
69393;SHT31;56582;44.624;20.378;2022-07-23T02:14:06;23.65;46.56
69393;SHT31;56582;44.624;20.378;2022-07-23T02:16:32;23.59;45.22
69393;SHT31;56582;44.624;20.378;2022-07-23T02:18:58;23.61;45.91
69393;SHT31;56582;44.624;20.378;2022-07-23T02:21:23;23.53;45.61
69393;SHT31;56582;44.624;20.378;2022-07-23T02:23:49;23.62;46.95
69393;SHT31;56582;44.624;20.378;2022-07-23T02:26:14;23.65;44.86
69393;SHT31;56582;44.624;20.378;2022-07-23T02:28:40;23.61;44.86
69393;SHT31;56582;44.624;20.378;2022-07-23T02:31:05;23.55;45.25
69393;SHT31;56582;44.624;20.378;2022-07-23T02:33:32;23.67;45.44
69393;SHT31;56582;44.624;20.378;2022-07-23T02:35:58;23.73;45.71
69393;SHT31;56582;44.624;20.378;2022-07-23T02:38:23;23.69;44.49
69393;SHT31;56582;44.624;20.378;2022-07-23T02:40:48;23.66;44.42
69393;SHT31;56582;44.624;20.378;2022-07-23T02:43:14;23.53;44.45
69393;SHT31;56582;44.624;20.378;2022-07-23T02:45:39;23.67;51.74
69393;SHT31;56582;44.624;20.378;2022-07-23T02:48:05;23.83;52.28
69393;SHT31;56582;44.624;20.378;2022-07-23T02:50:30;23.80;44.99
69393;SHT31;56582;44.624;20.378;2022-07-23T02:52:56;23.73;44.27
69393;SHT31;56582;44.624;20.378;2022-07-23T02:55:22;23.65;44.22
69393;SHT31;56582;44.624;20.378;2022-07-23T02:57:47;23.63;44.43
69393;SHT31;56582;44.624;20.378;2022-07-23T03:00:13;23.72;44.01
69393;SHT31;56582;44.624;20.378;2022-07-23T03:02:38;23.77;43.92
69393;SHT31;56582;44.624;20.378;2022-07-23T03:05:04;23.93;43.41
69393;SHT31;56582;44.624;20.378;2022-07-23T03:07:30;23.96;43.08
69393;SHT31;56582;44.624;20.378;2022-07-23T03:09:55;23.89;43.46
69393;SHT31;56582;44.624;20.378;2022-07-23T03:12:21;23.84;43.12
69393;SHT31;56582;44.624;20.378;2022-07-23T03:14:46;23.90;42.98
69393;SHT31;56582;44.624;20.378;2022-07-23T03:17:12;23.89;42.73
69393;SHT31;56582;44.624;20.378;2022-07-23T03:19:37;24.03;42.44
69393;SHT31;56582;44.624;20.378;2022-07-23T03:22:04;23.90;43.23
69393;SHT31;56582;44.624;20.378;2022-07-23T03:24:32;23.94;42.78
69393;SHT31;56582;44.624;20.378;2022-07-23T03:27:16;24.06;42.09
69393;SHT31;56582;44.624;20.378;2022-07-23T03:29:41;24.03;42.44
69393;SHT31;56582;44.624;20.378;2022-07-23T03:32:07;24.07;41.94
69393;SHT31;56582;44.624;20.378;2022-07-23T03:34:33;24.10;41.80
69393;SHT31;56582;44.624;20.378;2022-07-23T03:36:58;24.14;41.89
69393;SHT31;56582;44.624;20.378;2022-07-23T03:39:24;24.16;42.10
69393;SHT31;56582;44.624;20.378;2022-07-23T03:41:49;24.11;42.11
69393;SHT31;56582;44.624;20.378;2022-07-23T03:44:14;24.10;42.30
69393;SHT31;56582;44.624;20.378;2022-07-23T03:46:40;24.17;41.97
69393;SHT31;56582;44.624;20.378;2022-07-23T03:49:05;24.20;42.01
69393;SHT31;56582;44.624;20.378;2022-07-23T03:51:31;24.14;42.22
69393;SHT31;56582;44.624;20.378;2022-07-23T03:53:57;24.13;42.28
69393;SHT31;56582;44.624;20.378;2022-07-23T03:56:23;24.14;42.43
69393;SHT31;56582;44.624;20.378;2022-07-23T03:58:48;24.11;42.41
69393;SHT31;56582;44.624;20.378;2022-07-23T04:01:13;24.31;42.01
69393;SHT31;56582;44.624;20.378;2022-07-23T04:03:39;24.31;42.45
69393;SHT31;56582;44.624;20.378;2022-07-23T04:06:05;24.35;42.22
69393;SHT31;56582;44.624;20.378;2022-07-23T04:08:31;24.45;42.17
69393;SHT31;56582;44.624;20.378;2022-07-23T04:10:56;24.52;42.02
69393;SHT31;56582;44.624;20.378;2022-07-23T04:13:22;24.57;41.75
69393;SHT31;56582;44.624;20.378;2022-07-23T04:15:47;24.55;42.07
69393;SHT31;56582;44.624;20.378;2022-07-23T04:18:13;24.58;42.32
69393;SHT31;56582;44.624;20.378;2022-07-23T04:20:39;24.58;42.23
69393;SHT31;56582;44.624;20.378;2022-07-23T04:23:04;24.51;41.65
69393;SHT31;56582;44.624;20.378;2022-07-23T04:25:30;24.59;41.50
69393;SHT31;56582;44.624;20.378;2022-07-23T04:27:55;24.58;41.86
69393;SHT31;56582;44.624;20.378;2022-07-23T04:30:21;24.57;42.35
69393;SHT31;56582;44.624;20.378;2022-07-23T04:32:46;24.59;43.20
69393;SHT31;56582;44.624;20.378;2022-07-23T04:35:12;24.73;43.24
69393;SHT31;56582;44.624;20.378;2022-07-23T04:37:37;24.79;43.85
69393;SHT31;56582;44.624;20.378;2022-07-23T04:40:03;24.83;45.05
69393;SHT31;56582;44.624;20.378;2022-07-23T04:42:28;25.02;43.43
69393;SHT31;56582;44.624;20.378;2022-07-23T04:44:54;25.15;43.26
69393;SHT31;56582;44.624;20.378;2022-07-23T04:47:19;25.28;42.66
69393;SHT31;56582;44.624;20.378;2022-07-23T04:49:45;25.48;41.76
69393;SHT31;56582;44.624;20.378;2022-07-23T04:52:10;25.61;49.17
69393;SHT31;56582;44.624;20.378;2022-07-23T04:54:35;25.81;42.99
69393;SHT31;56582;44.624;20.378;2022-07-23T04:57:01;26.01;41.97
69393;SHT31;56582;44.624;20.378;2022-07-23T04:59:26;26.22;45.70
69393;SHT31;56582;44.624;20.378;2022-07-23T05:01:52;26.39;47.96
69393;SHT31;56582;44.624;20.378;2022-07-23T05:04:17;26.74;46.05
69393;SHT31;56582;44.624;20.378;2022-07-23T05:06:43;26.97;46.79
69393;SHT31;56582;44.624;20.378;2022-07-23T05:09:08;27.24;45.79
69393;SHT31;56582;44.624;20.378;2022-07-23T05:11:34;27.42;47.16
69393;SHT31;56582;44.624;20.378;2022-07-23T05:13:59;27.65;43.77
69393;SHT31;56582;44.624;20.378;2022-07-23T05:16:24;27.71;43.14
69393;SHT31;56582;44.624;20.378;2022-07-23T05:18:50;27.85;43.87
69393;SHT31;56582;44.624;20.378;2022-07-23T05:21:15;28.00;43.67
69393;SHT31;56582;44.624;20.378;2022-07-23T05:23:41;28.07;43.21
69393;SHT31;56582;44.624;20.378;2022-07-23T05:26:06;28.17;43.08
69393;SHT31;56582;44.624;20.378;2022-07-23T05:28:32;28.16;44.01
69393;SHT31;56582;44.624;20.378;2022-07-23T05:30:57;28.11;44.45
69393;SHT31;56582;44.624;20.378;2022-07-23T05:33:23;28.20;44.85
69393;SHT31;56582;44.624;20.378;2022-07-23T05:35:48;28.31;46.57
69393;SHT31;56582;44.624;20.378;2022-07-23T05:38:13;28.49;46.19
69393;SHT31;56582;44.624;20.378;2022-07-23T05:40:39;28.49;47.32
69393;SHT31;56582;44.624;20.378;2022-07-23T05:43:04;28.51;47.93
69393;SHT31;56582;44.624;20.378;2022-07-23T05:45:30;28.78;45.26
69393;SHT31;56582;44.624;20.378;2022-07-23T05:47:55;28.96;43.27
69393;SHT31;56582;44.624;20.378;2022-07-23T05:50:21;29.15;42.94
69393;SHT31;56582;44.624;20.378;2022-07-23T05:52:46;29.36;41.91
69393;SHT31;56582;44.624;20.378;2022-07-23T05:55:13;29.40;42.13
69393;SHT31;56582;44.624;20.378;2022-07-23T05:57:38;29.49;41.30
69393;SHT31;56582;44.624;20.378;2022-07-23T06:00:05;29.58;41.92
69393;SHT31;56582;44.624;20.378;2022-07-23T06:02:31;29.60;43.69
69393;SHT31;56582;44.624;20.378;2022-07-23T06:04:57;29.64;43.84
69393;SHT31;56582;44.624;20.378;2022-07-23T06:07:22;29.81;43.05
69393;SHT31;56582;44.624;20.378;2022-07-23T06:09:48;29.88;43.96
69393;SHT31;56582;44.624;20.378;2022-07-23T06:12:15;29.88;43.51
69393;SHT31;56582;44.624;20.378;2022-07-23T06:14:40;30.05;36.84
69393;SHT31;56582;44.624;20.378;2022-07-23T06:17:06;30.26;41.18
69393;SHT31;56582;44.624;20.378;2022-07-23T06:19:31;30.44;36.10
69393;SHT31;56582;44.624;20.378;2022-07-23T06:21:57;30.53;38.18
69393;SHT31;56582;44.624;20.378;2022-07-23T06:24:22;30.63;39.35
69393;SHT31;56582;44.624;20.378;2022-07-23T06:26:48;30.81;38.23
69393;SHT31;56582;44.624;20.378;2022-07-23T06:29:13;30.94;38.26
69393;SHT31;56582;44.624;20.378;2022-07-23T06:31:38;30.95;38.50
69393;SHT31;56582;44.624;20.378;2022-07-23T06:34:04;31.06;38.76
69393;SHT31;56582;44.624;20.378;2022-07-23T06:36:29;31.32;38.57
69393;SHT31;56582;44.624;20.378;2022-07-23T06:38:55;31.38;36.66
69393;SHT31;56582;44.624;20.378;2022-07-23T06:41:20;31.67;34.39
69393;SHT31;56582;44.624;20.378;2022-07-23T06:43:47;31.93;34.68
69393;SHT31;56582;44.624;20.378;2022-07-23T06:46:13;32.23;34.90
69393;SHT31;56582;44.624;20.378;2022-07-23T06:48:38;32.21;33.71
69393;SHT31;56582;44.624;20.378;2022-07-23T06:51:04;32.30;33.13
69393;SHT31;56582;44.624;20.378;2022-07-23T06:53:30;32.34;32.82
69393;SHT31;56582;44.624;20.378;2022-07-23T06:55:55;32.41;33.30
69393;SHT31;56582;44.624;20.378;2022-07-23T06:58:21;32.62;33.98
69393;SHT31;56582;44.624;20.378;2022-07-23T07:00:46;32.74;33.50
69393;SHT31;56582;44.624;20.378;2022-07-23T07:03:12;32.74;33.28
69393;SHT31;56582;44.624;20.378;2022-07-23T07:05:38;32.67;33.16
69393;SHT31;56582;44.624;20.378;2022-07-23T07:08:05;32.78;31.05
69393;SHT31;56582;44.624;20.378;2022-07-23T07:10:31;32.86;33.67
69393;SHT31;56582;44.624;20.378;2022-07-23T07:12:56;33.09;33.32
69393;SHT31;56582;44.624;20.378;2022-07-23T07:15:22;33.02;34.52
69393;SHT31;56582;44.624;20.378;2022-07-23T07:17:47;33.12;34.42
69393;SHT31;56582;44.624;20.378;2022-07-23T07:20:13;33.11;35.54
69393;SHT31;56582;44.624;20.378;2022-07-23T07:22:38;33.01;34.10
69393;SHT31;56582;44.624;20.378;2022-07-23T07:25:05;33.18;33.92
69393;SHT31;56582;44.624;20.378;2022-07-23T07:27:31;33.13;34.79
69393;SHT31;56582;44.624;20.378;2022-07-23T07:29:56;33.40;33.17
69393;SHT31;56582;44.624;20.378;2022-07-23T07:32:21;33.59;33.23
69393;SHT31;56582;44.624;20.378;2022-07-23T07:34:47;33.78;33.38
69393;SHT31;56582;44.624;20.378;2022-07-23T07:37:13;33.86;33.20
69393;SHT31;56582;44.624;20.378;2022-07-23T07:39:38;33.93;32.64
69393;SHT31;56582;44.624;20.378;2022-07-23T07:42:04;34.08;33.97
69393;SHT31;56582;44.624;20.378;2022-07-23T07:44:29;34.25;33.86
69393;SHT31;56582;44.624;20.378;2022-07-23T07:46:55;34.22;33.35
69393;SHT31;56582;44.624;20.378;2022-07-23T07:49:20;34.42;31.10
69393;SHT31;56582;44.624;20.378;2022-07-23T07:51:46;34.35;29.32
69393;SHT31;56582;44.624;20.378;2022-07-23T07:54:12;34.14;30.72
69393;SHT31;56582;44.624;20.378;2022-07-23T07:56:38;34.18;31.10
69393;SHT31;56582;44.624;20.378;2022-07-23T07:59:03;34.53;32.10
69393;SHT31;56582;44.624;20.378;2022-07-23T08:01:32;34.70;31.71
69393;SHT31;56582;44.624;20.378;2022-07-23T08:03:57;34.57;32.06
69393;SHT31;56582;44.624;20.378;2022-07-23T08:06:23;34.35;31.05
69393;SHT31;56582;44.624;20.378;2022-07-23T08:08:48;34.72;31.32
69393;SHT31;56582;44.624;20.378;2022-07-23T08:11:14;34.63;30.40
69393;SHT31;56582;44.624;20.378;2022-07-23T08:13:39;34.79;32.69
69393;SHT31;56582;44.624;20.378;2022-07-23T08:16:05;34.97;32.20
69393;SHT31;56582;44.624;20.378;2022-07-23T08:18:30;35.06;31.88
69393;SHT31;56582;44.624;20.378;2022-07-23T08:20:56;35.47;31.30
69393;SHT31;56582;44.624;20.378;2022-07-23T08:23:21;35.44;32.20
69393;SHT31;56582;44.624;20.378;2022-07-23T08:25:47;35.48;30.90
69393;SHT31;56582;44.624;20.378;2022-07-23T08:28:13;35.24;31.40
69393;SHT31;56582;44.624;20.378;2022-07-23T08:30:40;35.47;31.01
69393;SHT31;56582;44.624;20.378;2022-07-23T08:33:12;35.52;29.48
69393;SHT31;56582;44.624;20.378;2022-07-23T08:35:46;35.93;30.37
69393;SHT31;56582;44.624;20.378;2022-07-23T08:38:14;35.96;31.24
69393;SHT31;56582;44.624;20.378;2022-07-23T08:40:42;36.19;29.49
69393;SHT31;56582;44.624;20.378;2022-07-23T08:43:11;36.36;29.79
69393;SHT31;56582;44.624;20.378;2022-07-23T08:45:39;36.54;30.28
69393;SHT31;56582;44.624;20.378;2022-07-23T08:48:07;36.49;29.36
69393;SHT31;56582;44.624;20.378;2022-07-23T08:50:34;36.53;30.45
69393;SHT31;56582;44.624;20.378;2022-07-23T08:53:02;36.49;29.22
69393;SHT31;56582;44.624;20.378;2022-07-23T08:55:29;36.40;28.73
69393;SHT31;56582;44.624;20.378;2022-07-23T08:57:55;36.54;29.15
69393;SHT31;56582;44.624;20.378;2022-07-23T09:00:27;36.66;29.40
69393;SHT31;56582;44.624;20.378;2022-07-23T09:02:52;36.76;29.91
69393;SHT31;56582;44.624;20.378;2022-07-23T09:05:18;36.78;28.81
69393;SHT31;56582;44.624;20.378;2022-07-23T09:10:28;36.91;28.15
69393;SHT31;56582;44.624;20.378;2022-07-23T09:12:53;36.87;28.42
69393;SHT31;56582;44.624;20.378;2022-07-23T09:15:19;36.90;26.93
69393;SHT31;56582;44.624;20.378;2022-07-23T09:17:44;36.63;26.79
69393;SHT31;56582;44.624;20.378;2022-07-23T09:20:14;36.36;27.63
69393;SHT31;56582;44.624;20.378;2022-07-23T09:22:45;36.73;29.22
69393;SHT31;56582;44.624;20.378;2022-07-23T09:25:14;36.71;25.65
69393;SHT31;56582;44.624;20.378;2022-07-23T09:27:57;36.88;26.97
69393;SHT31;56582;44.624;20.378;2022-07-23T09:30:31;36.83;26.13
69393;SHT31;56582;44.624;20.378;2022-07-23T09:35:49;37.04;27.55
69393;SHT31;56582;44.624;20.378;2022-07-23T09:38:16;37.25;29.21
69393;SHT31;56582;44.624;20.378;2022-07-23T09:40:42;37.25;28.78
69393;SHT31;56582;44.624;20.378;2022-07-23T09:43:08;37.43;28.98
69393;SHT31;56582;44.624;20.378;2022-07-23T09:45:33;37.61;29.68
69393;SHT31;56582;44.624;20.378;2022-07-23T09:48:16;37.73;26.19
69393;SHT31;56582;44.624;20.378;2022-07-23T09:50:43;37.24;25.27
69393;SHT31;56582;44.624;20.378;2022-07-23T09:53:10;37.17;26.19
69393;SHT31;56582;44.624;20.378;2022-07-23T09:55:49;37.29;25.12
69393;SHT31;56582;44.624;20.378;2022-07-23T09:58:15;37.38;26.17
69393;SHT31;56582;44.624;20.378;2022-07-23T10:00:42;37.49;25.88
69393;SHT31;56582;44.624;20.378;2022-07-23T10:03:10;37.21;24.49
69393;SHT31;56582;44.624;20.378;2022-07-23T10:05:38;37.17;24.65
69393;SHT31;56582;44.624;20.378;2022-07-23T10:08:06;36.91;24.83
69393;SHT31;56582;44.624;20.378;2022-07-23T10:10:32;37.24;26.47
69393;SHT31;56582;44.624;20.378;2022-07-23T10:12:59;37.34;25.45
69393;SHT31;56582;44.624;20.378;2022-07-23T10:15:43;37.45;26.58
69393;SHT31;56582;44.624;20.378;2022-07-23T10:18:10;37.31;25.09
69393;SHT31;56582;44.624;20.378;2022-07-23T10:20:37;37.07;24.44
69393;SHT31;56582;44.624;20.378;2022-07-23T10:23:30;37.52;25.20
69393;SHT31;56582;44.624;20.378;2022-07-23T10:26:16;37.89;26.43
69393;SHT31;56582;44.624;20.378;2022-07-23T10:29:10;37.94;24.76
69393;SHT31;56582;44.624;20.378;2022-07-23T10:34:25;37.84;24.07
69393;SHT31;56582;44.624;20.378;2022-07-23T10:39:27;38.17;26.35
69393;SHT31;56582;44.624;20.378;2022-07-23T10:42:10;38.24;26.72
69393;SHT31;56582;44.624;20.378;2022-07-23T10:44:45;38.47;25.05
69393;SHT31;56582;44.624;20.378;2022-07-23T10:47:12;38.17;23.99
69393;SHT31;56582;44.624;20.378;2022-07-23T10:49:49;38.40;24.59
69393;SHT31;56582;44.624;20.378;2022-07-23T10:54:40;38.37;23.67
69393;SHT31;56582;44.624;20.378;2022-07-23T10:57:11;38.00;24.15
69393;SHT31;56582;44.624;20.378;2022-07-23T11:02:35;37.82;23.27
69393;SHT31;56582;44.624;20.378;2022-07-23T11:05:04;37.49;23.21
69393;SHT31;56582;44.624;20.378;2022-07-23T11:07:30;37.59;24.47
69393;SHT31;56582;44.624;20.378;2022-07-23T11:09:56;37.62;23.52
69393;SHT31;56582;44.624;20.378;2022-07-23T11:15:09;37.79;24.68
69393;SHT31;56582;44.624;20.378;2022-07-23T11:17:36;37.61;23.61
69393;SHT31;56582;44.624;20.378;2022-07-23T11:25:33;38.69;23.81
69393;SHT31;56582;44.624;20.378;2022-07-23T11:35:42;37.90;23.85
69393;SHT31;56582;44.624;20.378;2022-07-23T11:38:16;38.32;23.98
69393;SHT31;56582;44.624;20.378;2022-07-23T11:40:47;38.72;27.26
69393;SHT31;56582;44.624;20.378;2022-07-23T11:43:13;39.12;24.52
69393;SHT31;56582;44.624;20.378;2022-07-23T11:48:09;39.08;25.55
69393;SHT31;56582;44.624;20.378;2022-07-23T11:50:35;39.30;25.87
69393;SHT31;56582;44.624;20.378;2022-07-23T11:53:01;39.17;24.03
69393;SHT31;56582;44.624;20.378;2022-07-23T11:55:27;39.42;24.05
69393;SHT31;56582;44.624;20.378;2022-07-23T11:57:54;38.98;23.07
69393;SHT31;56582;44.624;20.378;2022-07-23T12:00:24;38.45;24.58
69393;SHT31;56582;44.624;20.378;2022-07-23T12:03:01;38.89;26.83
69393;SHT31;56582;44.624;20.378;2022-07-23T12:05:33;38.96;25.96
69393;SHT31;56582;44.624;20.378;2022-07-23T12:08:00;39.37;25.72
69393;SHT31;56582;44.624;20.378;2022-07-23T12:12:57;39.47;25.33
69393;SHT31;56582;44.624;20.378;2022-07-23T12:15:32;39.57;26.68
69393;SHT31;56582;44.624;20.378;2022-07-23T12:18:00;39.91;25.54
69393;SHT31;56582;44.624;20.378;2022-07-23T12:20:31;39.91;24.18
69393;SHT31;56582;44.624;20.378;2022-07-23T12:22:59;39.60;25.46
69393;SHT31;56582;44.624;20.378;2022-07-23T12:25:33;39.60;25.17
69393;SHT31;56582;44.624;20.378;2022-07-23T12:28:16;39.77;25.71
69393;SHT31;56582;44.624;20.378;2022-07-23T12:30:49;39.74;24.84
69393;SHT31;56582;44.624;20.378;2022-07-23T12:33:22;39.75;25.64
69393;SHT31;56582;44.624;20.378;2022-07-23T12:35:49;39.37;26.01
69393;SHT31;56582;44.624;20.378;2022-07-23T12:38:19;39.51;26.26
69393;SHT31;56582;44.624;20.378;2022-07-23T12:43:27;39.61;26.10
69393;SHT31;56582;44.624;20.378;2022-07-23T12:46:10;39.63;25.62
69393;SHT31;56582;44.624;20.378;2022-07-23T12:48:37;39.68;25.94
69393;SHT31;56582;44.624;20.378;2022-07-23T12:51:14;39.67;24.27
69393;SHT31;56582;44.624;20.378;2022-07-23T12:53:43;39.31;25.89
69393;SHT31;56582;44.624;20.378;2022-07-23T12:56:20;39.10;25.14
69393;SHT31;56582;44.624;20.378;2022-07-23T12:58:49;38.86;25.33
69393;SHT31;56582;44.624;20.378;2022-07-23T13:04:04;38.88;25.41
69393;SHT31;56582;44.624;20.378;2022-07-23T13:09:18;39.45;26.95
69393;SHT31;56582;44.624;20.378;2022-07-23T13:11:45;39.70;27.28
69393;SHT31;56582;44.624;20.378;2022-07-23T13:14:11;39.67;25.37
69393;SHT31;56582;44.624;20.378;2022-07-23T13:16:38;39.36;25.01
69393;SHT31;56582;44.624;20.378;2022-07-23T13:19:04;39.47;25.72
69393;SHT31;56582;44.624;20.378;2022-07-23T13:21:30;39.57;24.96
69393;SHT31;56582;44.624;20.378;2022-07-23T13:23:56;38.98;25.39
69393;SHT31;56582;44.624;20.378;2022-07-23T13:26:22;38.88;25.32
69393;SHT31;56582;44.624;20.378;2022-07-23T13:28:47;38.58;23.80
69393;SHT31;56582;44.624;20.378;2022-07-23T13:31:14;38.24;23.77
69393;SHT31;56582;44.624;20.378;2022-07-23T13:33:39;38.14;24.85
69393;SHT31;56582;44.624;20.378;2022-07-23T13:36:06;38.40;24.24
69393;SHT31;56582;44.624;20.378;2022-07-23T13:38:31;38.34;24.65
69393;SHT31;56582;44.624;20.378;2022-07-23T13:40:57;38.37;24.92
69393;SHT31;56582;44.624;20.378;2022-07-23T13:43:24;38.28;25.00
69393;SHT31;56582;44.624;20.378;2022-07-23T13:45:51;38.04;25.32
69393;SHT31;56582;44.624;20.378;2022-07-23T13:48:18;38.41;26.02
69393;SHT31;56582;44.624;20.378;2022-07-23T13:50:44;38.35;24.28
69393;SHT31;56582;44.624;20.378;2022-07-23T13:53:17;38.23;25.00
69393;SHT31;56582;44.624;20.378;2022-07-23T13:55:44;37.99;24.27
69393;SHT31;56582;44.624;20.378;2022-07-23T13:58:10;37.80;25.79
69393;SHT31;56582;44.624;20.378;2022-07-23T14:00:38;37.83;26.40
69393;SHT31;56582;44.624;20.378;2022-07-23T14:03:04;38.01;25.22
69393;SHT31;56582;44.624;20.378;2022-07-23T14:05:31;37.90;25.11
69393;SHT31;56582;44.624;20.378;2022-07-23T14:07:57;38.06;26.06
69393;SHT31;56582;44.624;20.378;2022-07-23T14:10:23;38.03;25.25
69393;SHT31;56582;44.624;20.378;2022-07-23T14:12:50;37.97;24.73
69393;SHT31;56582;44.624;20.378;2022-07-23T14:15:16;37.80;24.64
69393;SHT31;56582;44.624;20.378;2022-07-23T14:17:43;37.59;24.83
69393;SHT31;56582;44.624;20.378;2022-07-23T14:20:10;37.32;25.42
69393;SHT31;56582;44.624;20.378;2022-07-23T14:22:36;37.52;26.00
69393;SHT31;56582;44.624;20.378;2022-07-23T14:25:02;37.83;25.74
69393;SHT31;56582;44.624;20.378;2022-07-23T14:27:28;38.16;25.73
69393;SHT31;56582;44.624;20.378;2022-07-23T14:29:54;38.32;25.19
69393;SHT31;56582;44.624;20.378;2022-07-23T14:32:20;38.34;24.18
69393;SHT31;56582;44.624;20.378;2022-07-23T14:34:46;37.94;25.14
69393;SHT31;56582;44.624;20.378;2022-07-23T14:37:11;38.01;24.64
69393;SHT31;56582;44.624;20.378;2022-07-23T14:39:38;38.38;24.69
69393;SHT31;56582;44.624;20.378;2022-07-23T14:42:04;38.37;25.17
69393;SHT31;56582;44.624;20.378;2022-07-23T14:44:30;38.48;24.28
69393;SHT31;56582;44.624;20.378;2022-07-23T14:46:55;38.16;24.23
69393;SHT31;56582;44.624;20.378;2022-07-23T14:49:21;38.09;25.41
69393;SHT31;56582;44.624;20.378;2022-07-23T14:51:47;37.96;24.40
69393;SHT31;56582;44.624;20.378;2022-07-23T14:54:12;37.83;24.31
69393;SHT31;56582;44.624;20.378;2022-07-23T14:56:39;37.72;25.39
69393;SHT31;56582;44.624;20.378;2022-07-23T14:59:06;37.99;25.69
69393;SHT31;56582;44.624;20.378;2022-07-23T15:01:32;37.70;24.20
69393;SHT31;56582;44.624;20.378;2022-07-23T15:03:57;37.47;25.27
69393;SHT31;56582;44.624;20.378;2022-07-23T15:06:23;37.80;25.66
69393;SHT31;56582;44.624;20.378;2022-07-23T15:08:49;37.72;24.70
69393;SHT31;56582;44.624;20.378;2022-07-23T15:11:14;37.73;25.56
69393;SHT31;56582;44.624;20.378;2022-07-23T15:13:40;37.56;25.14
69393;SHT31;56582;44.624;20.378;2022-07-23T15:16:06;37.36;25.41
69393;SHT31;56582;44.624;20.378;2022-07-23T15:18:31;37.51;25.81
69393;SHT31;56582;44.624;20.378;2022-07-23T15:20:57;37.45;25.24
69393;SHT31;56582;44.624;20.378;2022-07-23T15:23:23;37.49;26.63
69393;SHT31;56582;44.624;20.378;2022-07-23T15:25:48;37.22;25.94
69393;SHT31;56582;44.624;20.378;2022-07-23T15:28:14;37.46;25.50
69393;SHT31;56582;44.624;20.378;2022-07-23T15:30:40;37.22;25.58
69393;SHT31;56582;44.624;20.378;2022-07-23T15:33:05;37.15;25.77
69393;SHT31;56582;44.624;20.378;2022-07-23T15:35:32;37.07;26.08
69393;SHT31;56582;44.624;20.378;2022-07-23T15:37:58;37.21;25.96
69393;SHT31;56582;44.624;20.378;2022-07-23T15:40:23;37.11;26.71
69393;SHT31;56582;44.624;20.378;2022-07-23T15:42:49;37.26;26.03
69393;SHT31;56582;44.624;20.378;2022-07-23T15:45:15;37.21;26.20
69393;SHT31;56582;44.624;20.378;2022-07-23T15:47:41;37.11;26.16
69393;SHT31;56582;44.624;20.378;2022-07-23T15:50:08;36.94;26.59
69393;SHT31;56582;44.624;20.378;2022-07-23T15:52:35;37.10;26.28
69393;SHT31;56582;44.624;20.378;2022-07-23T15:55:01;37.07;27.07
69393;SHT31;56582;44.624;20.378;2022-07-23T15:57:27;36.83;26.25
69393;SHT31;56582;44.624;20.378;2022-07-23T15:59:52;36.73;27.11